createdAt,value
2022-10-06T00:01:44.207Z,14.17
2022-10-06T00:03:49.556Z,14.18
2022-10-06T00:05:54.596Z,14.11
2022-10-06T00:07:59.693Z,14.07
2022-10-06T00:10:04.512Z,14.04
2022-10-06T00:12:12.701Z,14.04
2022-10-06T00:14:17.411Z,14.03
2022-10-06T00:16:24.599Z,14.03
2022-10-06T00:18:30.733Z,14.02
2022-10-06T00:20:36.049Z,14.03
2022-10-06T00:22:42.773Z,14.04
2022-10-06T00:24:47.567Z,14.04
2022-10-06T00:26:52.276Z,14.02
2022-10-06T00:28:59.627Z,14.02
2022-10-06T00:31:05.033Z,13.98
2022-10-06T00:33:10.077Z,13.98
2022-10-06T00:35:14.810Z,13.96
2022-10-06T00:37:19.581Z,13.94
2022-10-06T00:39:25.347Z,13.94
2022-10-06T00:41:30.905Z,13.92
2022-10-06T00:43:53.621Z,13.92
2022-10-06T00:46:01.095Z,13.89
2022-10-06T00:48:11.283Z,13.85
2022-10-06T00:50:17.645Z,13.85
2022-10-06T00:52:25.971Z,13.83
2022-10-06T00:54:31.396Z,13.82
2022-10-06T00:56:36.538Z,13.83
2022-10-06T00:58:41.132Z,13.77
2022-10-06T01:00:47.930Z,13.74
2022-10-06T01:02:59.781Z,13.74
2022-10-06T01:05:07.364Z,13.78
2022-10-06T01:07:12.650Z,13.81
2022-10-06T01:09:20.617Z,13.84
2022-10-06T01:11:25.550Z,13.88
2022-10-06T01:13:32.016Z,13.92
2022-10-06T01:15:37.480Z,13.93
2022-10-06T01:17:46.139Z,13.93
2022-10-06T01:19:56.929Z,13.96
2022-10-06T01:22:05.961Z,13.98
2022-10-06T01:24:16.574Z,13.99
2022-10-06T01:26:23.768Z,13.99
2022-10-06T01:28:29.260Z,13.98
2022-10-06T01:30:39.131Z,13.99
2022-10-06T01:32:44.230Z,13.96
2022-10-06T01:34:49.200Z,13.93
2022-10-06T01:36:53.882Z,13.89
2022-10-06T01:38:58.841Z,13.89
2022-10-06T01:41:06.336Z,13.91
2022-10-06T01:43:13.014Z,13.93
2022-10-06T01:45:20.274Z,13.92
2022-10-06T01:47:25.011Z,13.92
2022-10-06T01:49:29.840Z,13.92
2022-10-06T01:51:34.592Z,13.91
2022-10-06T01:53:39.358Z,13.93
2022-10-06T01:55:44.354Z,13.93
2022-10-06T01:57:55.807Z,13.95
2022-10-06T02:00:01.817Z,13.94
2022-10-06T02:02:07.462Z,13.95
2022-10-06T02:04:14.967Z,13.95
2022-10-06T02:06:20.004Z,13.95
2022-10-06T02:08:25.107Z,13.93
2022-10-06T02:10:34.346Z,13.91
2022-10-06T02:12:40.301Z,13.91
2022-10-06T02:14:49.811Z,13.88
2022-10-06T02:16:54.616Z,13.87
2022-10-06T02:18:59.465Z,13.85
2022-10-06T02:21:05.139Z,13.85
2022-10-06T02:23:09.955Z,13.83
2022-10-06T02:25:15.259Z,13.79
2022-10-06T02:27:20.955Z,13.75
2022-10-06T02:29:26.192Z,13.68
2022-10-06T02:31:34.365Z,13.62
2022-10-06T02:33:40.746Z,13.61
2022-10-06T02:35:47.236Z,13.61
2022-10-06T02:37:52.277Z,13.62
2022-10-06T02:39:58.340Z,13.62
2022-10-06T02:42:03.462Z,13.60
2022-10-06T02:44:08.290Z,13.57
2022-10-06T02:46:19.057Z,13.60
2022-10-06T02:48:31.795Z,13.59
2022-10-06T02:50:37.322Z,13.55
2022-10-06T02:52:43.001Z,13.56
2022-10-06T02:54:48.832Z,13.54
2022-10-06T02:56:53.610Z,13.53
2022-10-06T02:58:58.423Z,13.50
2022-10-06T03:01:07.780Z,13.49
2022-10-06T03:03:13.056Z,13.45
2022-10-06T03:05:20.470Z,13.40
2022-10-06T03:07:25.215Z,13.36
2022-10-06T03:09:30.029Z,13.37
2022-10-06T03:11:36.127Z,13.33
2022-10-06T03:13:41.360Z,13.28
2022-10-06T03:15:46.207Z,13.25
2022-10-06T03:17:52.553Z,13.24
2022-10-06T03:19:58.129Z,13.22
2022-10-06T03:22:06.454Z,13.22
2022-10-06T03:24:20.579Z,13.25
2022-10-06T03:26:34.338Z,13.27
2022-10-06T03:28:39.636Z,13.29
2022-10-06T03:30:44.583Z,13.31
2022-10-06T03:32:49.783Z,13.31
2022-10-06T03:34:55.144Z,13.28
2022-10-06T03:37:00.055Z,13.25
2022-10-06T03:39:09.589Z,13.29
2022-10-06T03:41:19.823Z,13.31
2022-10-06T03:43:25.048Z,13.32
2022-10-06T03:45:29.569Z,13.30
2022-10-06T03:47:34.446Z,13.30
2022-10-06T03:49:39.185Z,13.32
2022-10-06T03:51:45.614Z,13.41
2022-10-06T03:53:56.851Z,13.56
2022-10-06T03:56:06.134Z,13.69
2022-10-06T03:58:11.118Z,13.77
2022-10-06T04:00:18.923Z,13.89
2022-10-06T04:02:24.601Z,13.95
2022-10-06T04:04:29.482Z,13.99
2022-10-06T04:06:46.765Z,14.00
2022-10-06T04:08:55.996Z,14.02
2022-10-06T04:11:11.372Z,14.05
2022-10-06T04:13:18.883Z,14.06
2022-10-06T04:15:23.618Z,14.06
2022-10-06T04:17:28.481Z,14.06
2022-10-06T04:19:33.368Z,14.01
2022-10-06T04:21:39.290Z,13.99
2022-10-06T04:23:46.633Z,13.97
2022-10-06T04:25:55.820Z,13.97
2022-10-06T04:28:04.049Z,13.97
2022-10-06T04:30:10.097Z,13.98
2022-10-06T04:32:15.954Z,14.02
2022-10-06T04:34:21.496Z,14.07
2022-10-06T04:36:29.285Z,14.13
2022-10-06T04:38:35.871Z,14.20
2022-10-06T04:40:41.892Z,14.25
2022-10-06T04:42:46.914Z,14.33
2022-10-06T04:44:56.632Z,14.42
2022-10-06T04:47:01.552Z,14.48
2022-10-06T04:49:06.593Z,14.54
2022-10-06T04:51:15.129Z,14.61
2022-10-06T04:53:20.444Z,14.67
2022-10-06T04:55:25.349Z,14.73
2022-10-06T04:57:30.799Z,14.78
2022-10-06T04:59:48.096Z,14.81
2022-10-06T05:01:58.215Z,14.88
2022-10-06T05:04:04.462Z,14.90
2022-10-06T05:06:13.882Z,14.96
2022-10-06T05:08:19.184Z,15.00
2022-10-06T05:10:24.347Z,15.01
2022-10-06T05:12:31.210Z,15.04
2022-10-06T05:14:37.094Z,15.05
2022-10-06T05:16:43.238Z,15.05
2022-10-06T05:18:52.087Z,15.07
2022-10-06T05:21:05.765Z,15.10
2022-10-06T05:23:11.535Z,15.10
2022-10-06T05:25:18.308Z,15.13
2022-10-06T05:27:23.850Z,15.11
2022-10-06T05:29:29.336Z,15.10
2022-10-06T05:31:38.862Z,15.11
2022-10-06T05:33:44.881Z,15.14
2022-10-06T05:35:57.287Z,15.17
2022-10-06T05:38:02.153Z,15.15
2022-10-06T05:40:07.558Z,15.11
2022-10-06T05:42:15.425Z,15.08
2022-10-06T05:44:21.035Z,15.03
2022-10-06T05:46:28.643Z,14.96
2022-10-06T05:48:35.431Z,14.94
2022-10-06T05:50:40.340Z,14.91
2022-10-06T05:52:47.641Z,14.93
2022-10-06T05:54:52.568Z,14.91
2022-10-06T05:56:57.298Z,14.87
2022-10-06T05:59:03.454Z,14.87
2022-10-06T06:01:11.162Z,14.86
2022-10-06T06:03:18.699Z,14.89
2022-10-06T06:05:23.441Z,14.93
2022-10-06T06:07:28.697Z,15.01
2022-10-06T06:09:36.022Z,15.09
2022-10-06T06:11:44.253Z,15.14
2022-10-06T06:13:51.827Z,15.21
2022-10-06T06:16:04.346Z,15.25
2022-10-06T06:18:10.813Z,15.31
2022-10-06T06:20:15.734Z,15.36
2022-10-06T06:22:20.517Z,15.40
2022-10-06T06:24:27.446Z,15.45
2022-10-06T06:26:36.868Z,15.50
2022-10-06T06:28:42.487Z,15.52
2022-10-06T06:30:48.379Z,15.54
2022-10-06T06:32:54.004Z,15.56
2022-10-06T06:34:59.102Z,15.57
2022-10-06T06:37:08.386Z,15.56
2022-10-06T06:39:20.031Z,15.53
2022-10-06T06:41:28.959Z,15.44
2022-10-06T06:43:43.965Z,15.37
2022-10-06T06:45:53.218Z,15.32
2022-10-06T06:48:04.308Z,15.28
2022-10-06T06:50:14.111Z,15.13
2022-10-06T06:52:20.978Z,15.14
2022-10-06T06:54:27.756Z,15.15
2022-10-06T06:56:39.837Z,15.23
2022-10-06T06:58:50.757Z,15.22
2022-10-06T07:00:55.919Z,15.17
2022-10-06T07:03:02.081Z,15.21
2022-10-06T07:05:11.624Z,15.25
2022-10-06T07:07:17.181Z,15.21
2022-10-06T07:09:22.824Z,15.23
2022-10-06T07:11:30.788Z,15.23
2022-10-06T07:13:35.973Z,15.32
2022-10-06T07:15:56.169Z,15.35
2022-10-06T07:18:13.553Z,15.31
2022-10-06T07:20:30.803Z,15.31
2022-10-06T07:22:49.008Z,15.31
2022-10-06T07:25:09.699Z,15.40
2022-10-06T07:27:17.448Z,15.38
2022-10-06T07:29:22.489Z,15.37
2022-10-06T07:31:33.773Z,15.31
2022-10-06T07:33:40.902Z,15.22
2022-10-06T07:35:46.278Z,15.10
2022-10-06T07:37:54.864Z,15.12
2022-10-06T07:40:02.088Z,15.10
2022-10-06T07:42:10.273Z,15.10
2022-10-06T07:44:15.315Z,15.06
2022-10-06T07:46:23.100Z,15.10
2022-10-06T07:48:38.353Z,14.99
2022-10-06T07:50:44.661Z,15.02
2022-10-06T07:52:50.759Z,15.02
2022-10-06T07:54:55.985Z,14.99
2022-10-06T07:57:34.708Z,15.03
2022-10-06T07:59:41.147Z,15.07
2022-10-06T08:01:46.353Z,15.09
2022-10-06T08:03:53.804Z,15.09
2022-10-06T08:06:01.384Z,15.07
2022-10-06T08:08:06.293Z,14.97
2022-10-06T08:10:11.869Z,14.93
2022-10-06T08:12:32.142Z,14.83
2022-10-06T08:14:36.895Z,14.89
2022-10-06T08:16:41.674Z,15.01
2022-10-06T08:18:47.415Z,14.90
2022-10-06T08:20:55.562Z,14.92
2022-10-06T08:23:00.280Z,14.98
2022-10-06T08:25:06.737Z,15.01
2022-10-06T08:27:12.202Z,14.98
2022-10-06T08:29:17.203Z,14.98
2022-10-06T08:31:24.035Z,15.01
2022-10-06T08:33:28.870Z,15.04
2022-10-06T08:35:33.633Z,15.06
2022-10-06T08:37:40.944Z,15.16
2022-10-06T08:39:45.778Z,15.11
2022-10-06T08:41:54.831Z,15.10
2022-10-06T08:44:04.560Z,15.11
2022-10-06T08:46:12.888Z,15.23
2022-10-06T08:48:20.631Z,15.39
2022-10-06T08:50:28.995Z,15.47
2022-10-06T08:52:54.180Z,15.48
2022-10-06T08:55:09.856Z,15.56
2022-10-06T08:57:21.940Z,15.68
2022-10-06T08:59:26.777Z,15.59
2022-10-06T09:01:35.545Z,15.50
2022-10-06T09:03:40.397Z,15.60
2022-10-06T09:05:45.118Z,15.70
2022-10-06T09:08:04.334Z,15.63
2022-10-06T09:10:29.067Z,15.61
2022-10-06T09:12:38.243Z,15.63
2022-10-06T09:14:48.602Z,15.73
2022-10-06T09:17:00.859Z,15.74
2022-10-06T09:19:13.607Z,15.58
2022-10-06T09:21:23.120Z,15.56
2022-10-06T09:23:46.768Z,15.61
2022-10-06T09:25:51.675Z,15.62
2022-10-06T09:27:58.398Z,15.58
2022-10-06T09:30:04.997Z,15.55
2022-10-06T09:32:11.069Z,15.71
2022-10-06T09:34:24.621Z,15.75
2022-10-06T09:36:29.822Z,15.73
2022-10-06T09:38:52.803Z,15.80
2022-10-06T09:40:58.125Z,15.73
2022-10-06T09:43:03.775Z,15.75
2022-10-06T09:45:29.124Z,15.70
2022-10-06T09:47:41.947Z,15.75
2022-10-06T09:49:47.199Z,15.93
2022-10-06T09:52:03.809Z,16.07
2022-10-06T09:54:16.586Z,16.05
2022-10-06T09:56:22.092Z,16.01
2022-10-06T09:58:34.335Z,15.94
2022-10-06T10:00:50.801Z,15.83
2022-10-06T10:03:00.346Z,15.95
2022-10-06T10:05:07.780Z,15.98
2022-10-06T10:07:17.989Z,16.23
2022-10-06T10:09:30.029Z,16.40
2022-10-06T10:11:47.231Z,16.51
2022-10-06T10:13:55.299Z,16.46
2022-10-06T10:16:02.833Z,16.49
2022-10-06T10:18:16.928Z,16.57
2022-10-06T10:20:34.112Z,16.75
2022-10-06T10:22:41.864Z,16.80
2022-10-06T10:25:01.870Z,16.84
2022-10-06T10:27:14.440Z,16.74
2022-10-06T10:29:59.500Z,16.65
2022-10-06T10:32:15.371Z,16.69
2022-10-06T10:34:34.769Z,16.67
2022-10-06T10:36:50.878Z,16.91
2022-10-06T10:38:57.973Z,17.18
2022-10-06T10:41:10.336Z,17.54
2022-10-06T10:43:25.175Z,17.73
2022-10-06T10:45:35.078Z,17.74
2022-10-06T10:47:42.098Z,17.85
2022-10-06T10:49:53.901Z,17.86
2022-10-06T10:52:04.862Z,17.85
2022-10-06T10:54:16.856Z,17.81
2022-10-06T10:56:26.801Z,17.88
2022-10-06T10:58:36.790Z,17.92
2022-10-06T11:00:46.959Z,18.06
2022-10-06T11:02:55.066Z,17.96
2022-10-06T11:05:05.766Z,17.69
2022-10-06T11:07:21.326Z,17.43
2022-10-06T11:09:32.063Z,17.44
2022-10-06T11:12:01.607Z,17.50
2022-10-06T11:14:18.668Z,17.62
2022-10-06T11:16:38.276Z,17.53
2022-10-06T11:18:55.751Z,17.52
2022-10-06T11:21:04.118Z,17.52
2022-10-06T11:23:28.788Z,17.61
2022-10-06T11:25:43.266Z,17.62
2022-10-06T11:28:01.272Z,17.61
2022-10-06T11:30:09.791Z,17.70
2022-10-06T11:32:26.562Z,17.81
2022-10-06T11:34:31.316Z,18.01
2022-10-06T11:36:44.975Z,18.06
2022-10-06T11:38:55.132Z,18.13
2022-10-06T11:41:10.410Z,18.37
2022-10-06T11:43:26.328Z,18.57
2022-10-06T11:45:35.854Z,18.61
2022-10-06T11:47:56.312Z,18.60
2022-10-06T11:50:01.045Z,18.78
2022-10-06T11:52:35.550Z,18.86
2022-10-06T11:54:50.140Z,18.86
2022-10-06T11:56:54.919Z,18.81
2022-10-06T11:59:31.433Z,18.82
2022-10-06T12:01:54.675Z,18.78
2022-10-06T12:04:19.441Z,18.54
2022-10-06T12:07:01.487Z,18.40
2022-10-06T12:09:43.786Z,18.30
2022-10-06T12:11:50.515Z,18.30
2022-10-06T12:17:08.665Z,18.33
2022-10-06T12:19:19.599Z,18.19
2022-10-06T12:21:37.227Z,18.23
2022-10-06T12:23:52.973Z,18.28
2022-10-06T12:26:03.266Z,18.30
2022-10-06T12:28:18.087Z,18.46
2022-10-06T12:30:26.635Z,18.38
2022-10-06T12:32:51.789Z,18.22
2022-10-06T12:35:03.831Z,18.25
2022-10-06T12:37:36.105Z,18.28
2022-10-06T12:39:40.862Z,18.14
2022-10-06T12:42:02.537Z,18.07
2022-10-06T12:44:26.299Z,18.00
2022-10-06T12:46:45.789Z,18.08
2022-10-06T12:48:59.786Z,18.15
2022-10-06T12:51:09.777Z,18.05
2022-10-06T12:53:22.248Z,17.97
2022-10-06T12:55:44.383Z,17.96
2022-10-06T12:57:50.835Z,18.03
2022-10-06T12:59:55.561Z,18.03
2022-10-06T13:02:03.757Z,18.11
2022-10-06T13:04:36.025Z,18.15
2022-10-06T13:06:40.866Z,18.06
2022-10-06T13:08:45.620Z,18.05
2022-10-06T13:10:50.375Z,18.08
2022-10-06T13:12:58.015Z,18.00
2022-10-06T13:15:23.805Z,18.12
2022-10-06T13:17:28.675Z,18.10
2022-10-06T13:19:36.101Z,18.05
2022-10-06T13:21:40.851Z,18.06
2022-10-06T13:23:48.346Z,18.12
2022-10-06T13:25:57.694Z,17.98
2022-10-06T13:28:03.502Z,17.85
2022-10-06T13:30:22.151Z,17.69
2022-10-06T13:32:28.753Z,17.70
2022-10-06T13:34:43.257Z,17.68
2022-10-06T13:36:50.413Z,17.66
2022-10-06T13:38:55.427Z,17.72
2022-10-06T13:41:08.599Z,17.70
2022-10-06T13:43:20.310Z,17.77
2022-10-06T13:45:26.455Z,17.82
2022-10-06T13:47:33.591Z,17.83
2022-10-06T13:49:47.997Z,17.83
2022-10-06T13:51:56.584Z,17.85
2022-10-06T13:54:02.580Z,17.77
2022-10-06T13:56:07.322Z,17.77
2022-10-06T13:58:15.129Z,17.82
2022-10-06T14:00:23.874Z,17.89
2022-10-06T14:02:35.238Z,17.99
2022-10-06T14:04:42.637Z,17.97
2022-10-06T14:06:53.330Z,17.97
2022-10-06T14:09:02.244Z,18.01
2022-10-06T14:11:09.790Z,17.93
2022-10-06T14:13:20.715Z,17.88
2022-10-06T14:15:29.582Z,17.86
2022-10-06T14:17:34.398Z,17.86
2022-10-06T14:19:43.049Z,17.94
2022-10-06T14:21:48.618Z,17.97
2022-10-06T14:23:54.916Z,18.04
2022-10-06T14:25:59.665Z,18.00
2022-10-06T14:28:04.550Z,18.04
2022-10-06T14:30:11.152Z,17.98
2022-10-06T14:32:17.767Z,17.94
2022-10-06T14:34:24.173Z,17.86
2022-10-06T14:36:34.546Z,17.78
2022-10-06T14:38:39.259Z,17.77
2022-10-06T14:40:44.285Z,17.70
2022-10-06T14:42:49.057Z,17.65
2022-10-06T14:44:53.825Z,17.65
2022-10-06T14:46:58.686Z,17.64
2022-10-06T14:49:04.147Z,17.62
2022-10-06T14:51:09.632Z,17.65
2022-10-06T14:53:18.028Z,17.75
2022-10-06T14:55:22.723Z,17.81
2022-10-06T14:57:27.487Z,17.85
2022-10-06T14:59:32.771Z,17.89
2022-10-06T15:01:40.212Z,17.84
2022-10-06T15:03:49.076Z,17.72
2022-10-06T15:06:11.979Z,17.70
2022-10-06T15:08:19.270Z,17.73
2022-10-06T15:10:24.060Z,17.73
2022-10-06T15:12:33.752Z,17.75
2022-10-06T15:14:40.045Z,17.76
2022-10-06T15:16:45.038Z,17.70
2022-10-06T15:18:49.824Z,17.62
2022-10-06T15:20:54.551Z,17.59
2022-10-06T15:22:59.344Z,17.62
2022-10-06T15:25:07.400Z,17.60
2022-10-06T15:27:25.333Z,17.59
2022-10-06T15:29:27.548Z,17.61
2022-10-06T15:31:35.616Z,17.61
2022-10-06T15:33:40.467Z,17.48
2022-10-06T15:35:52.265Z,17.37
2022-10-06T15:37:56.997Z,17.34
2022-10-06T15:40:01.774Z,17.38
2022-10-06T15:42:09.681Z,17.41
2022-10-06T15:44:15.441Z,17.39
2022-10-06T15:46:20.664Z,17.39
2022-10-06T15:48:25.303Z,17.31
2022-10-06T15:50:30.080Z,17.21
2022-10-06T15:52:34.796Z,17.16
2022-10-06T15:54:41.120Z,17.17
2022-10-06T15:56:45.953Z,17.20
2022-10-06T15:58:53.363Z,17.24
2022-10-06T16:00:58.083Z,17.22
2022-10-06T16:03:05.890Z,17.24
2022-10-06T16:05:26.789Z,17.25
2022-10-06T16:07:32.626Z,17.25
2022-10-06T16:09:42.975Z,17.22
2022-10-06T16:11:49.764Z,17.16
2022-10-06T16:13:57.672Z,17.13
2022-10-06T16:16:02.608Z,17.11
2022-10-06T16:18:07.511Z,17.10
2022-10-06T16:20:12.980Z,17.07
2022-10-06T16:22:20.006Z,17.06
2022-10-06T16:24:25.878Z,17.04
2022-10-06T16:26:31.260Z,17.00
2022-10-06T16:28:36.290Z,16.97
2022-10-06T16:30:43.904Z,16.90
2022-10-06T16:32:48.639Z,16.88
2022-10-06T16:34:53.410Z,16.84
2022-10-06T16:36:58.244Z,16.78
2022-10-06T16:39:03.030Z,16.73
2022-10-06T16:41:07.892Z,16.65
2022-10-06T16:43:12.628Z,16.62
2022-10-06T16:45:17.565Z,16.57
2022-10-06T16:47:24.921Z,16.55
2022-10-06T16:49:29.623Z,16.52
2022-10-06T16:51:35.949Z,16.49
2022-10-06T16:53:41.926Z,16.45
2022-10-06T16:55:47.870Z,16.43
2022-10-06T16:57:52.548Z,16.40
2022-10-06T16:59:57.301Z,16.36
2022-10-06T17:02:02.052Z,16.33
2022-10-06T17:04:11.186Z,16.28
2022-10-06T17:06:17.846Z,16.25
2022-10-06T17:08:25.042Z,16.20
2022-10-06T17:10:29.904Z,16.13
2022-10-06T17:12:34.660Z,16.07
2022-10-06T17:14:39.981Z,16.01
2022-10-06T17:16:46.391Z,15.97
2022-10-06T17:18:52.085Z,15.91
2022-10-06T17:21:01.714Z,15.87
2022-10-06T17:23:06.758Z,15.82
2022-10-06T17:25:12.957Z,15.76
2022-10-06T17:27:18.008Z,15.71
2022-10-06T17:29:24.449Z,15.67
2022-10-06T17:31:34.152Z,15.61
2022-10-06T17:33:42.413Z,15.56
2022-10-06T17:35:47.131Z,15.52
2022-10-06T17:37:54.454Z,15.48
2022-10-06T17:39:59.236Z,15.40
2022-10-06T17:42:03.979Z,15.37
2022-10-06T17:44:12.905Z,15.35
2022-10-06T17:46:20.219Z,15.32
2022-10-06T17:48:29.716Z,15.31
2022-10-06T17:50:34.477Z,15.29
2022-10-06T17:52:39.570Z,15.24
2022-10-06T17:54:47.263Z,15.18
2022-10-06T17:56:54.298Z,15.11
2022-10-06T17:59:00.906Z,15.02
2022-10-06T18:01:11.196Z,14.98
2022-10-06T18:03:16.298Z,14.92
2022-10-06T18:05:21.055Z,14.84
2022-10-06T18:07:25.784Z,14.78
2022-10-06T18:09:30.620Z,14.76
2022-10-06T18:11:37.848Z,14.69
2022-10-06T18:13:42.544Z,14.61
2022-10-06T18:15:48.585Z,14.57
2022-10-06T18:17:53.457Z,14.53
2022-10-06T18:19:58.576Z,14.47
2022-10-06T18:22:04.960Z,14.38
2022-10-06T18:24:10.753Z,14.30
2022-10-06T18:26:17.651Z,14.24
2022-10-06T18:28:25.299Z,14.25
2022-10-06T18:30:31.078Z,14.24
2022-10-06T18:36:12.193Z,14.19
2022-10-06T18:37:25.305Z,14.13
2022-10-06T18:39:31.480Z,14.13
2022-10-06T18:41:36.921Z,14.12
2022-10-06T18:43:44.620Z,14.11
2022-10-06T18:46:02.022Z,14.11
2022-10-06T18:48:19.632Z,14.11
2022-10-06T18:50:24.444Z,14.08
2022-10-06T18:52:29.304Z,14.05
2022-10-06T18:54:34.119Z,14.01
2022-10-06T18:56:40.657Z,14.01
2022-10-06T18:58:48.087Z,14.02
2022-10-06T19:00:54.884Z,14.00
2022-10-06T19:02:59.749Z,13.96
2022-10-06T19:05:04.988Z,13.89
2022-10-06T19:07:09.848Z,13.82
2022-10-06T19:09:17.737Z,13.79
2022-10-06T19:11:34.989Z,13.80
2022-10-06T19:13:44.751Z,13.81
2022-10-06T19:15:55.544Z,13.80
2022-10-06T19:18:00.243Z,13.75
2022-10-06T19:20:05.054Z,13.74
2022-10-06T19:22:09.822Z,13.67
2022-10-06T19:24:16.663Z,13.60
2022-10-06T19:26:22.675Z,13.52
2022-10-06T19:28:28.596Z,13.51
2022-10-06T19:30:33.402Z,13.51
2022-10-06T19:32:40.918Z,13.51
2022-10-06T19:34:47.042Z,13.47
2022-10-06T19:36:52.988Z,13.38
2022-10-06T19:38:58.303Z,13.27
2022-10-06T19:41:16.835Z,13.21
2022-10-06T19:43:22.078Z,13.14
2022-10-06T19:45:26.577Z,13.02
2022-10-06T19:47:31.909Z,12.96
2022-10-06T19:49:39.311Z,12.90
2022-10-06T19:51:44.031Z,12.88
2022-10-06T19:53:51.291Z,12.81
2022-10-06T19:56:04.684Z,12.78
2022-10-06T19:58:09.384Z,12.67
2022-10-06T20:00:15.701Z,12.69
2022-10-06T20:02:20.448Z,12.73
2022-10-06T20:04:26.887Z,12.71
2022-10-06T20:06:35.773Z,12.71
2022-10-06T20:08:42.189Z,12.74
2022-10-06T20:10:47.572Z,12.76
2022-10-06T20:12:52.375Z,12.78
2022-10-06T20:14:57.641Z,12.79
2022-10-06T20:17:02.736Z,12.82
2022-10-06T20:19:07.997Z,12.79
2022-10-06T20:21:16.555Z,12.75
2022-10-06T20:23:23.978Z,12.76
2022-10-06T20:25:28.701Z,12.76
2022-10-06T20:27:33.429Z,12.75
2022-10-06T20:29:38.362Z,12.72
2022-10-06T20:31:45.135Z,12.64
2022-10-06T20:33:50.358Z,12.55
2022-10-06T20:35:55.186Z,12.52
2022-10-06T20:38:00.671Z,12.49
2022-10-06T20:40:33.383Z,12.44
2022-10-06T20:42:38.103Z,12.42
2022-10-06T20:44:42.938Z,12.42
2022-10-06T20:46:47.714Z,12.41
2022-10-06T20:48:52.885Z,12.44
2022-10-06T20:50:57.779Z,12.42
2022-10-06T20:53:02.506Z,12.39
2022-10-06T20:55:10.862Z,12.38
2022-10-06T20:57:15.886Z,12.38
2022-10-06T20:59:21.624Z,12.36
2022-10-06T21:01:26.630Z,12.31
2022-10-06T21:03:31.387Z,12.28
2022-10-06T21:05:36.170Z,12.24
2022-10-06T21:07:41.071Z,12.21
2022-10-06T21:09:51.271Z,12.15
2022-10-06T21:12:00.294Z,12.13
2022-10-06T21:14:07.436Z,12.13
2022-10-06T21:16:12.981Z,12.08
2022-10-06T21:18:17.718Z,12.10
2022-10-06T21:20:22.439Z,12.01
2022-10-06T21:22:29.522Z,11.99
2022-10-06T21:24:34.298Z,11.89
2022-10-06T21:26:42.690Z,11.87
2022-10-06T21:28:52.414Z,11.89
2022-10-06T21:30:58.175Z,11.89
2022-10-06T21:33:03.655Z,11.94
2022-10-06T21:35:10.047Z,11.95
2022-10-06T21:37:15.724Z,11.95
2022-10-06T21:39:20.447Z,11.94
2022-10-06T21:41:34.198Z,11.94
2022-10-06T21:43:38.889Z,11.93
2022-10-06T21:45:57.013Z,11.94
2022-10-06T21:48:13.998Z,11.95
2022-10-06T21:50:18.926Z,11.93
2022-10-06T21:52:23.587Z,11.91
2022-10-06T21:54:28.234Z,11.88
2022-10-06T21:56:35.554Z,11.87
2022-10-06T21:58:40.319Z,11.88
2022-10-06T22:00:47.606Z,11.88
2022-10-06T22:02:52.366Z,11.87
2022-10-06T22:04:57.116Z,11.87
2022-10-06T22:07:01.833Z,11.86
2022-10-06T22:09:07.862Z,11.85
2022-10-06T22:11:14.620Z,11.81
2022-10-06T22:13:19.373Z,11.74
2022-10-06T22:15:24.050Z,11.68
2022-10-06T22:17:31.397Z,11.63
2022-10-06T22:19:36.064Z,11.61
2022-10-06T22:21:42.684Z,11.60
2022-10-06T22:23:49.315Z,11.59
2022-10-06T22:25:57.647Z,11.60
2022-10-06T22:28:02.345Z,11.55
2022-10-06T22:30:08.343Z,11.50
2022-10-06T22:32:13.036Z,11.49
2022-10-06T22:34:21.606Z,11.51
2022-10-06T22:36:27.033Z,11.52
2022-10-06T22:38:31.907Z,11.51
2022-10-06T22:40:36.567Z,11.49
2022-10-06T22:42:41.235Z,11.50
2022-10-06T22:44:46.026Z,11.51
2022-10-06T22:46:50.781Z,11.51
2022-10-06T22:48:55.770Z,11.50
2022-10-06T22:51:03.629Z,11.53
2022-10-06T22:53:08.291Z,11.47
2022-10-06T22:55:13.025Z,11.46
2022-10-06T22:57:17.693Z,11.42
2022-10-06T22:59:22.418Z,11.38
2022-10-06T23:01:27.094Z,11.33
2022-10-06T23:03:31.872Z,11.32
2022-10-06T23:05:37.230Z,11.32
2022-10-06T23:07:44.812Z,11.32
2022-10-06T23:09:49.786Z,11.29
2022-10-06T23:11:54.840Z,11.28
2022-10-06T23:13:59.568Z,11.18
2022-10-06T23:16:07.531Z,11.04
2022-10-06T23:18:12.836Z,11.01
2022-10-06T23:20:17.990Z,10.99
2022-10-06T23:22:22.460Z,10.92
2022-10-06T23:24:29.817Z,10.85
2022-10-06T23:26:35.379Z,10.84
2022-10-06T23:28:41.131Z,10.84
2022-10-06T23:30:45.846Z,10.85
2022-10-06T23:32:50.566Z,10.84
2022-10-06T23:34:55.575Z,10.84
2022-10-06T23:37:00.275Z,10.84
2022-10-06T23:39:04.937Z,10.86
2022-10-06T23:41:12.282Z,10.85
2022-10-06T23:43:16.971Z,10.82
2022-10-06T23:45:21.722Z,10.82
2022-10-06T23:47:26.805Z,10.83
2022-10-06T23:49:33.475Z,10.82
2022-10-06T23:51:38.157Z,10.82
2022-10-06T23:53:43.263Z,10.81
2022-10-06T23:55:47.958Z,10.82
2022-10-06T23:57:55.242Z,10.82
